createdAt,value
2018-05-13T00:00:45.272Z,9.90
2018-05-13T00:03:13.534Z,9.38
2018-05-13T00:05:41.833Z,9.50
2018-05-13T00:08:10.110Z,10.25
2018-05-13T00:10:38.423Z,10.80
2018-05-13T00:13:06.719Z,10.83
2018-05-13T00:15:35.017Z,9.70
2018-05-13T00:18:03.339Z,12.33
2018-05-13T00:20:32.170Z,11.70
2018-05-13T00:23:00.458Z,9.40
2018-05-13T00:25:28.809Z,8.93
2018-05-13T00:27:57.110Z,7.90
2018-05-13T00:30:25.388Z,12.30
2018-05-13T00:32:53.674Z,9.20
2018-05-13T00:35:21.926Z,7.72
2018-05-13T00:37:51.003Z,7.97
2018-05-13T00:40:19.278Z,9.00
2018-05-13T00:42:47.565Z,9.13
2018-05-13T00:45:15.906Z,8.17
2018-05-13T00:47:44.154Z,8.10
2018-05-13T00:50:12.422Z,8.20
2018-05-13T00:52:40.752Z,8.27
2018-05-13T00:55:09.013Z,11.20
2018-05-13T00:57:37.324Z,11.53
2018-05-13T01:00:05.619Z,7.63
2018-05-13T01:02:33.915Z,8.27
2018-05-13T01:05:02.239Z,7.73
2018-05-13T01:07:30.526Z,7.87
2018-05-13T01:09:58.790Z,9.57
2018-05-13T01:12:27.111Z,8.45
2018-05-13T01:14:55.399Z,8.80
2018-05-13T01:17:23.673Z,7.77
2018-05-13T01:19:51.971Z,7.93
2018-05-13T01:22:20.358Z,9.73
2018-05-13T01:24:48.682Z,8.27
2018-05-13T01:27:16.943Z,8.77
2018-05-13T01:29:45.293Z,7.57
2018-05-13T01:32:13.605Z,8.47
2018-05-13T01:34:41.898Z,8.43
2018-05-13T01:37:10.173Z,8.45
2018-05-13T01:39:38.462Z,8.10
2018-05-13T01:42:07.238Z,8.97
2018-05-13T01:44:35.530Z,8.10
2018-05-13T01:47:04.214Z,8.80
2018-05-13T01:49:32.950Z,9.45
2018-05-13T01:52:01.227Z,8.33
2018-05-13T01:54:29.529Z,7.67
2018-05-13T01:56:57.787Z,10.13
2018-05-13T01:59:26.589Z,11.30
2018-05-13T02:01:54.898Z,12.47
2018-05-13T02:04:23.208Z,14.43
2018-05-13T02:06:51.496Z,16.50
2018-05-13T02:09:19.774Z,12.93
2018-05-13T02:11:48.089Z,13.47
2018-05-13T02:14:16.371Z,14.00
2018-05-13T02:16:45.191Z,15.10
2018-05-13T02:19:13.470Z,14.75
2018-05-13T02:21:41.780Z,13.87
2018-05-13T02:24:10.058Z,12.45
2018-05-13T02:26:38.416Z,16.47
2018-05-13T02:29:06.700Z,12.07
2018-05-13T02:31:35.003Z,10.18
2018-05-13T02:34:04.319Z,9.63
2018-05-13T02:36:32.678Z,9.47
2018-05-13T02:39:00.943Z,8.67
2018-05-13T02:41:29.323Z,9.83
2018-05-13T02:43:57.566Z,8.33
2018-05-13T02:46:25.878Z,9.15
2018-05-13T02:48:54.217Z,9.70
2018-05-13T02:51:22.499Z,8.50
2018-05-13T02:53:50.776Z,8.70
2018-05-13T02:56:19.084Z,9.13
2018-05-13T02:58:47.376Z,9.03
2018-05-13T03:01:15.631Z,9.88
2018-05-13T03:03:43.915Z,9.93
2018-05-13T03:06:12.277Z,9.47
2018-05-13T03:08:40.572Z,10.40
2018-05-13T03:11:08.870Z,10.07
2018-05-13T03:13:37.151Z,9.70
2018-05-13T03:16:05.430Z,10.57
2018-05-13T03:18:34.497Z,9.33
2018-05-13T03:21:02.737Z,8.70
2018-05-13T03:23:31.023Z,9.00
2018-05-13T03:25:59.324Z,12.17
2018-05-13T03:28:27.610Z,8.63
2018-05-13T03:30:56.525Z,7.57
2018-05-13T03:33:24.816Z,8.37
2018-05-13T03:35:53.068Z,8.13
2018-05-13T03:38:21.351Z,8.25
2018-05-13T03:40:49.656Z,7.67
2018-05-13T03:43:17.937Z,8.10
2018-05-13T03:45:46.210Z,7.83
2018-05-13T03:48:14.477Z,7.65
2018-05-13T03:50:42.781Z,8.57
2018-05-13T03:53:11.040Z,9.00
2018-05-13T03:55:39.374Z,9.53
2018-05-13T03:58:07.642Z,9.47
2018-05-13T04:00:36.019Z,12.77
2018-05-13T04:03:05.792Z,7.90
2018-05-13T04:05:34.093Z,10.30
2018-05-13T04:11:28.007Z,12.47
2018-05-13T04:14:08.055Z,7.80
2018-05-13T04:16:36.486Z,8.37
2018-05-13T04:19:05.557Z,6.73
2018-05-13T04:21:33.843Z,7.13
2018-05-13T04:24:02.129Z,8.10
2018-05-13T04:26:30.413Z,6.77
2018-05-13T04:28:58.665Z,7.60
2018-05-13T04:31:26.987Z,6.77
2018-05-13T04:33:55.276Z,9.70
2018-05-13T04:36:23.574Z,6.67
2018-05-13T04:38:51.862Z,7.80
2018-05-13T04:41:20.194Z,6.77
2018-05-13T04:43:48.491Z,9.03
2018-05-13T04:46:16.759Z,6.60
2018-05-13T04:48:45.055Z,6.60
2018-05-13T04:51:13.323Z,8.30
2018-05-13T04:53:41.612Z,10.37
2018-05-13T04:56:09.886Z,7.05
2018-05-13T04:58:38.185Z,6.50
2018-05-13T05:01:07.370Z,7.23
2018-05-13T05:03:35.673Z,6.87
2018-05-13T05:06:04.933Z,6.45
2018-05-13T05:08:33.222Z,10.70
2018-05-13T05:11:01.541Z,7.90
2018-05-13T05:13:33.560Z,7.33
2018-05-13T05:16:01.823Z,8.87
2018-05-13T05:18:30.109Z,8.60
2018-05-13T05:20:58.372Z,10.63
2018-05-13T05:23:26.681Z,8.60
2018-05-13T05:25:54.942Z,8.93
2018-05-13T05:28:23.243Z,10.60
2018-05-13T05:30:51.515Z,9.10
2018-05-13T05:33:19.804Z,9.40
2018-05-13T05:35:48.115Z,8.75
2018-05-13T05:38:16.585Z,9.27
2018-05-13T05:40:44.853Z,8.70
2018-05-13T05:43:13.123Z,8.80
2018-05-13T05:45:41.483Z,10.93
2018-05-13T05:48:09.753Z,8.35
2018-05-13T05:50:38.042Z,8.13
2018-05-13T05:53:06.307Z,8.70
2018-05-13T05:55:34.597Z,8.90
2018-05-13T05:58:03.001Z,8.02
2018-05-13T06:00:31.290Z,8.00
2018-05-13T06:02:59.567Z,8.23
2018-05-13T06:05:27.924Z,8.07
2018-05-13T06:07:56.198Z,8.70
2018-05-13T06:10:24.485Z,8.10
2018-05-13T06:12:52.779Z,9.90
2018-05-13T06:15:21.054Z,9.07
2018-05-13T06:17:49.344Z,13.00
2018-05-13T06:20:17.690Z,12.85
2018-05-13T06:22:46.250Z,13.38
2018-05-13T06:25:14.640Z,13.77
2018-05-13T06:27:42.864Z,20.93
2018-05-13T06:30:11.144Z,16.83
2018-05-13T06:32:39.458Z,18.10
2018-05-13T06:35:08.651Z,19.47
2018-05-13T06:37:36.970Z,22.60
2018-05-13T06:40:05.238Z,21.60
2018-05-13T06:42:33.610Z,21.97
2018-05-13T06:45:01.814Z,23.23
2018-05-13T06:47:30.115Z,22.07
2018-05-13T06:49:58.409Z,22.90
2018-05-13T06:52:26.693Z,23.40
2018-05-13T06:54:54.999Z,21.43
2018-05-13T06:57:25.135Z,22.83
2018-05-13T06:59:53.346Z,22.97
2018-05-13T07:02:21.638Z,25.33
2018-05-13T07:04:49.950Z,23.57
2018-05-13T07:07:18.588Z,21.30
2018-05-13T07:09:46.860Z,23.47
2018-05-13T07:12:15.180Z,24.17
2018-05-13T07:14:43.491Z,25.13
2018-05-13T07:17:11.843Z,26.13
2018-05-13T07:19:40.102Z,20.88
2018-05-13T07:22:08.404Z,21.30
2018-05-13T07:24:36.706Z,22.58
2018-05-13T07:27:05.020Z,23.90
2018-05-13T07:29:33.303Z,20.63
2018-05-13T07:32:03.939Z,22.03
2018-05-13T07:34:32.252Z,20.77
2018-05-13T07:37:16.125Z,25.60
2018-05-13T07:39:44.392Z,25.40
2018-05-13T07:42:12.676Z,23.45
2018-05-13T07:44:41.236Z,31.57
2018-05-13T07:47:09.561Z,23.83
2018-05-13T07:49:37.894Z,25.10
2018-05-13T07:52:06.234Z,22.30
2018-05-13T07:54:34.535Z,22.93
2018-05-13T07:57:02.845Z,23.08
2018-05-13T07:59:31.130Z,20.33
2018-05-13T08:01:59.796Z,19.30
2018-05-13T08:04:28.100Z,19.95
2018-05-13T08:06:56.375Z,19.30
2018-05-13T08:09:26.506Z,21.93
2018-05-13T08:11:56.748Z,20.40
2018-05-13T08:14:25.309Z,20.05
2018-05-13T08:16:53.559Z,18.33
2018-05-13T08:19:22.041Z,19.70
2018-05-13T08:21:50.283Z,21.27
2018-05-13T08:24:19.312Z,20.92
2018-05-13T08:26:47.644Z,23.60
2018-05-13T08:29:15.909Z,21.37
2018-05-13T08:31:44.799Z,22.50
2018-05-13T08:34:13.154Z,22.70
2018-05-13T08:36:41.479Z,23.50
2018-05-13T08:39:09.745Z,27.85
2018-05-13T08:41:38.041Z,23.50
2018-05-13T08:44:07.156Z,22.60
2018-05-13T08:46:35.484Z,18.93
2018-05-13T08:49:03.750Z,18.70
2018-05-13T08:51:32.102Z,20.67
2018-05-13T08:54:00.492Z,22.03
2018-05-13T08:56:28.711Z,20.43
2018-05-13T08:58:56.995Z,20.97
2018-05-13T09:01:25.296Z,19.63
2018-05-13T09:03:53.612Z,18.20
2018-05-13T09:06:21.908Z,21.05
2018-05-13T09:08:50.193Z,19.23
2018-05-13T09:11:18.500Z,15.00
2018-05-13T09:13:46.768Z,13.87
2018-05-13T09:16:15.170Z,15.10
2018-05-13T09:18:43.442Z,16.97
2018-05-13T09:21:12.217Z,17.67
2018-05-13T09:23:40.495Z,12.90
2018-05-13T09:26:08.772Z,13.70
2018-05-13T09:28:37.095Z,13.47
2018-05-13T09:31:05.375Z,14.00
2018-05-13T09:33:33.684Z,14.93
2018-05-13T09:36:01.962Z,15.33
2018-05-13T09:38:30.300Z,14.33
2018-05-13T09:40:58.952Z,14.30
2018-05-13T09:43:27.296Z,14.37
2018-05-13T09:45:55.656Z,13.80
2018-05-13T09:48:23.928Z,12.63
2018-05-13T09:50:52.242Z,13.07
2018-05-13T09:53:20.562Z,11.52
2018-05-13T09:55:49.335Z,12.50
2018-05-13T09:58:17.647Z,13.65
2018-05-13T10:00:46.004Z,13.30
2018-05-13T10:03:14.991Z,13.80
2018-05-13T10:05:43.273Z,14.07
2018-05-13T10:08:11.565Z,15.70
2018-05-13T10:10:39.952Z,14.07
2018-05-13T10:13:08.228Z,14.30
2018-05-13T10:15:36.550Z,14.27
2018-05-13T10:18:05.332Z,16.25
2018-05-13T10:20:33.636Z,15.60
2018-05-13T10:23:02.089Z,16.60
2018-05-13T10:25:30.355Z,15.00
2018-05-13T10:27:58.626Z,17.10
2018-05-13T10:30:26.983Z,14.47
2018-05-13T10:32:55.228Z,12.30
2018-05-13T10:35:23.584Z,15.27
2018-05-13T10:37:51.843Z,14.30
2018-05-13T10:40:20.172Z,13.90
2018-05-13T10:42:48.801Z,13.13
2018-05-13T10:45:17.067Z,13.80
2018-05-13T10:47:45.390Z,13.03
2018-05-13T10:50:13.658Z,13.40
2018-05-13T10:52:42.030Z,12.40
2018-05-13T10:55:10.301Z,12.73
2018-05-13T10:57:38.662Z,13.37
2018-05-13T11:00:06.871Z,14.73
2018-05-13T11:02:35.176Z,12.97
2018-05-13T11:05:03.479Z,12.27
2018-05-13T11:07:32.562Z,14.03
2018-05-13T11:10:01.303Z,12.83
2018-05-13T11:12:29.623Z,13.93
2018-05-13T11:14:59.003Z,17.30
2018-05-13T11:17:27.410Z,13.53
2018-05-13T11:19:55.685Z,12.70
2018-05-13T11:22:24.500Z,12.77
2018-05-13T11:24:52.791Z,13.07
2018-05-13T11:27:21.105Z,13.45
2018-05-13T11:29:50.016Z,13.20
2018-05-13T11:32:18.321Z,15.60
2018-05-13T11:34:46.655Z,14.53
2018-05-13T11:37:15.632Z,13.97
2018-05-13T11:39:44.932Z,13.80
2018-05-13T11:42:13.206Z,14.25
2018-05-13T11:44:41.508Z,14.00
2018-05-13T11:47:09.789Z,14.37
2018-05-13T11:49:38.078Z,16.20
2018-05-13T11:52:06.363Z,17.20
2018-05-13T11:54:34.695Z,18.20
2018-05-13T11:57:02.934Z,21.23
2018-05-13T11:59:31.698Z,18.47
2018-05-13T12:02:00.003Z,17.93
2018-05-13T12:04:28.279Z,20.43
2018-05-13T12:06:56.554Z,18.43
2018-05-13T12:09:24.972Z,18.97
2018-05-13T12:11:53.250Z,20.80
2018-05-13T12:14:21.586Z,19.65
2018-05-13T12:16:49.883Z,17.85
2018-05-13T12:19:18.145Z,23.60
2018-05-13T12:21:46.442Z,19.48
2018-05-13T12:24:14.719Z,22.07
2018-05-13T12:26:43.023Z,20.73
2018-05-13T12:29:11.322Z,20.52
2018-05-13T12:31:40.084Z,22.40
2018-05-13T12:34:08.357Z,20.58
2018-05-13T12:36:36.786Z,19.33
2018-05-13T12:39:05.806Z,20.10
2018-05-13T12:41:34.149Z,23.13
2018-05-13T12:44:02.465Z,21.90
2018-05-13T12:46:30.805Z,22.13
2018-05-13T12:48:59.169Z,37.03
2018-05-13T12:51:27.478Z,21.53
2018-05-13T12:53:55.818Z,23.37
2018-05-13T12:56:24.174Z,20.85
2018-05-13T12:58:53.310Z,19.67
2018-05-13T13:01:22.640Z,19.23
2018-05-13T13:03:50.966Z,19.00
2018-05-13T13:06:19.225Z,20.03
2018-05-13T13:08:47.511Z,21.20
2018-05-13T13:11:15.875Z,20.07
2018-05-13T13:13:44.174Z,20.27
2018-05-13T13:16:12.458Z,18.27
2018-05-13T13:18:40.761Z,19.57
2018-05-13T13:21:09.064Z,21.90
2018-05-13T13:23:37.342Z,23.20
2018-05-13T13:26:05.661Z,18.40
2018-05-13T13:28:34.775Z,24.80
2018-05-13T13:31:03.048Z,22.73
2018-05-13T13:33:32.183Z,21.30
2018-05-13T13:36:00.490Z,22.93
2018-05-13T13:38:29.682Z,22.20
2018-05-13T13:40:57.955Z,21.52
2018-05-13T13:43:26.279Z,28.03
2018-05-13T13:45:54.614Z,20.90
2018-05-13T13:48:22.936Z,22.70
2018-05-13T13:50:51.213Z,21.93
2018-05-13T13:53:19.634Z,23.62
2018-05-13T13:55:48.045Z,25.80
2018-05-13T13:58:17.352Z,19.37
2018-05-13T14:00:46.932Z,22.50
2018-05-13T14:03:15.227Z,22.63
2018-05-13T14:05:43.542Z,22.47
2018-05-13T14:08:11.824Z,21.52
2018-05-13T14:10:40.452Z,23.25
2018-05-13T14:13:08.772Z,22.40
2018-05-13T14:15:37.158Z,27.35
2018-05-13T14:18:05.706Z,23.27
2018-05-13T14:20:33.992Z,22.53
2018-05-13T14:23:02.275Z,24.00
2018-05-13T14:25:30.576Z,24.67
2018-05-13T14:27:58.845Z,22.17
2018-05-13T14:30:27.146Z,23.47
2018-05-13T14:32:55.842Z,23.87
2018-05-13T14:35:24.104Z,28.30
2018-05-13T14:37:52.447Z,25.07
2018-05-13T14:40:20.743Z,22.48
2018-05-13T14:42:49.043Z,23.97
2018-05-13T14:45:17.470Z,23.00
2018-05-13T14:47:45.743Z,22.03
2018-05-13T14:50:13.980Z,22.20
2018-05-13T14:52:42.295Z,22.63
2018-05-13T14:55:10.635Z,24.30
2018-05-13T14:57:38.916Z,21.80
2018-05-13T15:00:07.202Z,20.27
2018-05-13T15:02:35.551Z,25.70
2018-05-13T15:05:04.719Z,22.40
2018-05-13T15:07:33.047Z,21.23
2018-05-13T15:10:01.323Z,26.00
2018-05-13T15:12:29.670Z,22.13
2018-05-13T15:14:58.934Z,26.77
2018-05-13T15:17:27.248Z,23.47
2018-05-13T15:19:55.511Z,21.67
2018-05-13T15:22:29.368Z,23.70
2018-05-13T15:24:57.566Z,22.07
2018-05-13T15:27:25.879Z,25.10
2018-05-13T15:29:54.143Z,24.87
2018-05-13T15:32:22.482Z,24.97
2018-05-13T15:34:50.774Z,26.13
2018-05-13T15:37:19.155Z,23.70
2018-05-13T15:39:47.351Z,26.93
2018-05-13T15:42:16.459Z,23.77
2018-05-13T15:44:44.755Z,27.53
2018-05-13T15:47:13.043Z,29.27
2018-05-13T15:49:41.327Z,26.07
2018-05-13T15:52:09.600Z,23.87
2018-05-13T15:54:37.926Z,28.20
2018-05-13T15:57:06.244Z,27.60
2018-05-13T15:59:34.534Z,27.23
2018-05-13T16:02:02.799Z,28.80
2018-05-13T16:04:31.110Z,30.17
2018-05-13T16:06:59.382Z,30.20
2018-05-13T16:09:28.030Z,27.00
2018-05-13T16:11:56.350Z,29.77
2018-05-13T16:14:25.194Z,28.47
2018-05-13T16:16:53.483Z,25.93
2018-05-13T16:19:21.746Z,26.33
2018-05-13T16:21:50.055Z,26.80
2018-05-13T16:24:18.312Z,26.50
2018-05-13T16:26:46.609Z,32.60
2018-05-13T16:29:14.874Z,28.30
2018-05-13T16:31:43.170Z,23.97
2018-05-13T16:34:11.434Z,27.43
2018-05-13T16:36:39.739Z,27.23
2018-05-13T16:39:08.002Z,27.90
2018-05-13T16:41:36.301Z,25.00
2018-05-13T16:44:04.603Z,29.93
2018-05-13T16:46:32.915Z,23.70
2018-05-13T16:49:01.244Z,25.80
2018-05-13T16:51:29.536Z,26.70
2018-05-13T16:53:57.793Z,24.00
2018-05-13T16:56:26.126Z,31.53
2018-05-13T16:58:54.406Z,26.23
2018-05-13T17:01:22.706Z,27.60
2018-05-13T17:03:50.984Z,24.63
2018-05-13T17:06:19.504Z,25.67
2018-05-13T17:08:47.798Z,25.87
2018-05-13T17:11:16.116Z,26.40
2018-05-13T17:13:44.389Z,27.77
2018-05-13T17:16:12.731Z,24.60
2018-05-13T17:18:41.003Z,21.83
2018-05-13T17:21:09.294Z,24.97
2018-05-13T17:23:37.585Z,30.30
2018-05-13T17:26:05.875Z,21.30
2018-05-13T17:28:34.148Z,23.47
2018-05-13T17:31:02.446Z,23.03
2018-05-13T17:33:31.519Z,16.30
2018-05-13T17:35:59.785Z,18.80
2018-05-13T17:38:28.086Z,26.73
2018-05-13T17:40:57.466Z,13.20
2018-05-13T17:43:26.014Z,14.30
2018-05-13T17:45:55.409Z,12.27
2018-05-13T17:48:23.753Z,12.50
2018-05-13T17:50:52.077Z,12.07
2018-05-13T17:53:21.374Z,11.43
2018-05-13T17:55:49.687Z,11.50
2018-05-13T17:58:17.961Z,12.40
2018-05-13T18:00:46.277Z,11.50
2018-05-13T18:03:14.680Z,11.43
2018-05-13T18:05:42.815Z,11.07
2018-05-13T18:08:11.158Z,10.47
2018-05-13T18:10:39.438Z,11.40
2018-05-13T18:13:07.740Z,14.10
2018-05-13T18:15:36.023Z,11.37
2018-05-13T18:18:04.324Z,11.40
2018-05-13T18:20:32.586Z,11.37
2018-05-13T18:23:00.914Z,11.17
2018-05-13T18:25:29.489Z,10.93
2018-05-13T18:27:57.741Z,12.83
2018-05-13T18:30:26.069Z,11.10
2018-05-13T18:32:54.547Z,11.00
2018-05-13T18:35:22.889Z,13.47
2018-05-13T18:37:51.234Z,10.53
2018-05-13T18:40:20.438Z,11.53
2018-05-13T18:42:48.765Z,12.27
2018-05-13T18:45:17.113Z,11.40
2018-05-13T18:47:45.404Z,11.93
2018-05-13T18:50:13.741Z,13.03
2018-05-13T18:52:42.050Z,13.73
2018-05-13T18:55:10.374Z,14.70
2018-05-13T18:57:38.686Z,11.70
2018-05-13T19:00:06.967Z,13.40
2018-05-13T19:02:35.310Z,13.20
2018-05-13T19:05:03.611Z,15.87
2018-05-13T19:07:31.935Z,16.20
2018-05-13T19:10:00.215Z,22.03
2018-05-13T19:12:28.523Z,16.40
2018-05-13T19:14:56.788Z,13.10
2018-05-13T19:17:25.110Z,20.57
2018-05-13T19:19:53.432Z,17.83
2018-05-13T19:22:21.727Z,14.73
2018-05-13T19:24:50.059Z,16.27
2018-05-13T19:27:18.334Z,16.77
2018-05-13T19:29:46.595Z,19.63
2018-05-13T19:32:14.917Z,18.80
2018-05-13T19:34:43.183Z,18.63
2018-05-13T19:37:11.491Z,24.50
2018-05-13T19:39:39.797Z,16.30
2018-05-13T19:42:09.375Z,16.33
2018-05-13T19:44:37.687Z,20.00
2018-05-13T19:47:05.968Z,18.63
2018-05-13T19:49:34.316Z,19.77
2018-05-13T19:52:02.582Z,16.47
2018-05-13T19:54:30.941Z,16.17
2018-05-13T19:56:59.246Z,16.73
2018-05-13T19:59:27.556Z,14.90
2018-05-13T20:01:55.839Z,15.37
2018-05-13T20:04:24.463Z,18.50
2018-05-13T20:06:52.731Z,17.83
2018-05-13T20:09:21.060Z,17.37
2018-05-13T20:11:49.336Z,20.23
2018-05-13T20:14:19.617Z,18.07
2018-05-13T20:16:47.904Z,15.53
2018-05-13T20:19:16.306Z,16.20
2018-05-13T20:21:44.551Z,14.00
2018-05-13T20:24:12.911Z,16.00
2018-05-13T20:26:41.190Z,15.73
2018-05-13T20:29:09.518Z,14.00
2018-05-13T20:31:37.832Z,15.83
2018-05-13T20:34:06.104Z,18.07
2018-05-13T20:36:34.418Z,15.50
2018-05-13T20:39:02.761Z,18.70
2018-05-13T20:41:31.028Z,15.53
2018-05-13T20:43:59.355Z,15.80
2018-05-13T20:46:27.635Z,15.90
2018-05-13T20:48:55.959Z,17.90
2018-05-13T20:51:24.241Z,19.63
2018-05-13T20:53:52.626Z,20.07
2018-05-13T20:56:20.923Z,19.80
2018-05-13T20:58:49.195Z,20.07
2018-05-13T21:01:17.528Z,23.93
2018-05-13T21:03:46.137Z,20.93
2018-05-13T21:06:14.430Z,27.93
2018-05-13T21:08:42.725Z,23.57
2018-05-13T21:11:11.112Z,25.27
2018-05-13T21:13:39.473Z,26.57
2018-05-13T21:16:07.799Z,25.40
2018-05-13T21:18:36.178Z,33.67
2018-05-13T21:21:04.570Z,33.27
2018-05-13T21:23:32.904Z,38.03
2018-05-13T21:26:01.357Z,32.40
2018-05-13T21:28:29.730Z,34.50
2018-05-13T21:30:58.008Z,32.70
2018-05-13T21:33:26.291Z,36.47
2018-05-13T21:35:54.629Z,37.03
2018-05-13T21:38:22.919Z,37.25
2018-05-13T21:40:51.258Z,39.30
2018-05-13T21:43:19.548Z,38.17
2018-05-13T21:45:47.929Z,39.20
2018-05-13T21:48:16.271Z,38.17
2018-05-13T21:50:44.615Z,34.10
2018-05-13T21:53:12.914Z,43.30
2018-05-13T21:55:41.219Z,38.63
2018-05-13T21:58:09.544Z,38.38
2018-05-13T22:00:38.166Z,38.77
2018-05-13T22:03:06.592Z,38.30
2018-05-13T22:05:34.865Z,41.63
2018-05-13T22:08:04.239Z,37.55
2018-05-13T22:10:32.516Z,39.97
2018-05-13T22:13:00.875Z,43.07
2018-05-13T22:15:29.154Z,34.17
2018-05-13T22:17:57.650Z,43.03
2018-05-13T22:20:25.962Z,40.27
2018-05-13T22:22:54.289Z,37.93
2018-05-13T22:25:22.592Z,39.97
2018-05-13T22:27:50.892Z,43.20
2018-05-13T22:30:19.170Z,45.70
2018-05-13T22:32:47.490Z,39.33
2018-05-13T22:35:15.771Z,39.03
2018-05-13T22:37:44.086Z,41.70
2018-05-13T22:40:12.644Z,40.87
2018-05-13T22:42:40.979Z,43.67
2018-05-13T22:45:09.281Z,46.05
2018-05-13T22:47:37.587Z,40.43
2018-05-13T22:50:06.164Z,47.93
2018-05-13T22:52:34.444Z,51.47
2018-05-13T22:55:02.804Z,49.13
2018-05-13T22:57:31.057Z,50.70
2018-05-13T22:59:59.366Z,49.58
2018-05-13T23:02:27.813Z,46.27
2018-05-13T23:04:56.153Z,47.38
2018-05-13T23:07:24.399Z,46.97
2018-05-13T23:09:52.761Z,47.20
2018-05-13T23:12:21.024Z,40.22
2018-05-13T23:14:49.333Z,44.10
2018-05-13T23:17:17.634Z,53.07
2018-05-13T23:19:45.926Z,47.57
2018-05-13T23:22:26.557Z,52.13
2018-05-13T23:24:54.891Z,46.80
2018-05-13T23:27:23.241Z,48.87
2018-05-13T23:29:51.511Z,44.70
2018-05-13T23:32:19.838Z,47.95
2018-05-13T23:34:48.460Z,47.90
2018-05-13T23:37:16.731Z,42.20
2018-05-13T23:39:45.059Z,45.27
2018-05-13T23:42:13.351Z,47.03
2018-05-13T23:44:41.662Z,47.67
2018-05-13T23:47:09.944Z,44.72
2018-05-13T23:49:38.239Z,42.30
2018-05-13T23:52:06.534Z,38.57
2018-05-13T23:54:34.930Z,34.93
2018-05-13T23:57:03.247Z,34.17
2018-05-13T23:59:32.743Z,35.78
